createdAt,value
2023-04-17T00:27:45.009Z,5.15
2023-04-17T01:27:44.998Z,4.66
2023-04-17T01:27:45.526Z,4.28
2023-04-17T01:57:45.491Z,4.22
2023-04-17T02:27:45.127Z,4.32
2023-04-17T02:57:45.246Z,4.63
2023-04-17T03:27:45.270Z,5.41
2023-04-17T03:57:45.067Z,5.98
2023-04-17T04:27:44.584Z,6.29
2023-04-17T04:57:45.183Z,6.58
2023-04-17T05:57:44.722Z,6.72
2023-04-17T06:27:44.860Z,7.51
2023-04-17T07:27:44.787Z,7.97
2023-04-17T07:57:46.757Z,9.69
2023-04-17T08:57:44.613Z,10.35
2023-04-17T09:27:44.385Z,10.44
2023-04-17T09:57:44.689Z,10.58
2023-04-17T10:27:44.287Z,11.12
2023-04-17T10:57:44.825Z,11.3
2023-04-17T11:57:44.686Z,11.39
2023-04-17T11:57:45.143Z,11.78
2023-04-17T12:27:44.496Z,12.49
2023-04-17T12:57:44.408Z,13.53
2023-04-17T13:27:43.962Z,14.92
2023-04-17T13:57:43.925Z,14.39
2023-04-17T14:27:43.739Z,14.16
2023-04-17T14:57:44.244Z,14.06
2023-04-17T15:27:43.862Z,14.22
2023-04-17T15:57:44.011Z,14.29
2023-04-17T16:27:43.966Z,13.35
2023-04-17T16:57:43.881Z,13.31
2023-04-17T17:27:43.491Z,12.62
2023-04-17T17:57:49.155Z,11.9
2023-04-17T18:27:43.622Z,11.34
2023-04-17T18:57:43.672Z,10.77
2023-04-17T19:27:43.640Z,10.15
2023-04-17T19:57:43.589Z,9.43
2023-04-17T20:27:43.115Z,9.53
2023-04-17T20:57:43.465Z,9.32
2023-04-17T21:27:43.492Z,9.19
2023-04-17T21:57:43.375Z,8.93
2023-04-17T22:27:43.207Z,8.6
2023-04-17T22:57:43.256Z,8.53
2023-04-17T23:27:42.852Z,8.15
2023-04-17T23:57:43.239Z,7.98
